Time;durP1;ratioP1;P1;durP2;ratioP2;P2;SDS_P1;SDS_P2;PMS_P1;PMS_P2;Temp;Humidity;BMP_temperature;BMP_pressure;BME280_temperature;BME280_humidity;BME280_pressure;Samples;Min_cycle;Max_cycle;Signal;HPM_P1;HPM_P2
2021/08/10 00:01:25;;;;;;;26.23;20.02;;;24.40;97.20;;;;;;5091935;28;20028;-82
2021/08/10 00:03:52;;;;;;;26.95;20.52;;;24.40;97.20;;;;;;5074147;28;20036;-82
2021/08/10 00:06:18;;;;;;;27.40;21.48;;;24.40;97.20;;;;;;5074085;28;20020;-82
2021/08/10 00:08:44;;;;;;;28.15;22.02;;;24.40;97.30;;;;;;5091723;28;20393;-82
2021/08/10 00:11:10;;;;;;;30.50;22.05;;;24.40;97.30;;;;;;5091563;28;20062;-81
2021/08/10 00:13:35;;;;;;;27.98;21.45;;;24.40;97.30;;;;;;5074410;28;20381;-82
2021/08/10 00:16:01;;;;;;;28.58;22.35;;;24.40;97.30;;;;;;5073672;28;20043;-82
2021/08/10 00:18:27;;;;;;;27.02;21.35;;;24.40;97.30;;;;;;5091886;28;20063;-82
2021/08/10 00:20:52;;;;;;;27.25;22.05;;;24.40;97.30;;;;;;5073716;28;20054;-81
2021/08/10 00:23:20;;;;;;;26.38;20.42;;;24.40;97.30;;;;;;5091593;28;20111;-81
2021/08/10 00:25:47;;;;;;;30.05;23.33;;;24.40;97.30;;;;;;5073728;28;20083;-81
2021/08/10 00:28:15;;;;;;;26.60;21.65;;;24.40;97.30;;;;;;5077373;28;20023;-82
2021/08/10 00:30:42;;;;;;;28.75;22.30;;;24.40;97.30;;;;;;5091901;28;20024;-82
2021/08/10 00:33:09;;;;;;;30.60;22.48;;;24.40;97.30;;;;;;5073865;28;20047;-81
2021/08/10 00:35:34;;;;;;;28.77;22.08;;;24.40;97.30;;;;;;5095563;28;20107;-82
2021/08/10 00:38:00;;;;;;;31.02;23.65;;;24.40;97.30;;;;;;5075884;28;20573;-82
2021/08/10 00:40:28;;;;;;;28.90;21.58;;;24.40;97.30;;;;;;5077455;28;20032;-81
2021/08/10 00:42:54;;;;;;;30.92;22.75;;;24.50;97.30;;;;;;5095374;28;20024;-81
2021/08/10 00:45:21;;;;;;;27.42;21.55;;;24.40;97.30;;;;;;5060088;28;20094;-81
2021/08/10 00:47:48;;;;;;;26.58;21.42;;;24.40;97.30;;;;;;5077237;28;20362;-81
2021/08/10 00:50:14;;;;;;;30.70;22.95;;;24.40;97.30;;;;;;5077097;28;20039;-81
2021/08/10 00:52:40;;;;;;;26.02;21.05;;;24.50;97.30;;;;;;5077196;28;20032;-81
2021/08/10 00:55:07;;;;;;;27.70;21.83;;;24.50;97.30;;;;;;5094599;28;20366;-81
2021/08/10 00:57:32;;;;;;;27.77;21.70;;;24.50;97.30;;;;;;5080047;28;20500;-81
2021/08/10 01:00:00;;;;;;;29.38;22.45;;;24.50;97.30;;;;;;5060100;28;20056;-81
2021/08/10 01:02:26;;;;;;;26.63;21.17;;;24.50;97.30;;;;;;5076753;28;20085;-81
2021/08/10 01:04:51;;;;;;;28.45;22.52;;;24.40;97.30;;;;;;5060298;28;20024;-82
2021/08/10 01:07:25;;;;;;;28.77;22.00;;;24.40;97.30;;;;;;5077950;28;20074;-82
2021/08/10 01:09:56;;;;;;;27.30;21.70;;;24.40;97.40;;;;;;5076812;28;20020;-82
2021/08/10 01:12:38;;;;;;;26.27;21.50;;;24.40;97.40;;;;;;5098463;28;20091;-82
2021/08/10 01:15:14;;;;;;;28.15;21.83;;;24.40;97.40;;;;;;5095184;28;20038;-83
2021/08/10 01:17:50;;;;;;;28.73;21.73;;;24.40;97.40;;;;;;5094996;28;20181;-83
2021/08/10 01:20:46;;;;;;;27.00;22.02;;;24.40;97.40;;;;;;5076492;28;20086;-81
2021/08/10 01:23:15;;;;;;;27.92;20.90;;;24.40;97.50;;;;;;5094020;28;20354;-82
2021/08/10 01:26:06;;;;;;;27.20;21.25;;;24.40;97.50;;;;;;5076493;28;20024;-82
2021/08/10 01:28:45;;;;;;;27.48;21.95;;;24.40;97.50;;;;;;5100392;28;20051;-81
2021/08/10 01:31:21;;;;;;;27.10;21.50;;;24.40;97.60;;;;;;5076160;28;20077;-81
2021/08/10 01:33:50;;;;;;;29.42;21.70;;;24.40;97.60;;;;;;5077023;28;20032;-81
2021/08/10 01:36:19;;;;;;;28.13;21.65;;;24.40;97.60;;;;;;5095397;28;20028;-81
2021/08/10 01:38:48;;;;;;;25.58;20.50;;;24.40;97.60;;;;;;5080209;28;20032;-81
2021/08/10 01:41:15;;;;;;;27.52;21.00;;;24.40;97.60;;;;;;5094364;28;20035;-81
2021/08/10 01:43:42;;;;;;;26.77;20.95;;;24.40;97.60;;;;;;5094645;28;20040;-81
2021/08/10 01:46:08;;;;;;;25.27;19.88;;;24.40;97.60;;;;;;5094021;28;20493;-82
2021/08/10 01:48:35;;;;;;;26.23;20.33;;;24.40;97.60;;;;;;5075302;28;20124;-81
2021/08/10 01:51:04;;;;;;;24.40;18.95;;;24.40;97.60;;;;;;5094528;28;20032;-82
2021/08/10 01:53:30;;;;;;;23.42;19.25;;;24.40;97.70;;;;;;5093900;28;20097;-83
2021/08/10 01:55:58;;;;;;;24.92;19.45;;;24.40;97.70;;;;;;5075469;28;20071;-83
2021/08/10 01:58:26;;;;;;;24.92;18.85;;;24.40;97.70;;;;;;5093383;28;20039;-83
2021/08/10 02:00:53;;;;;;;24.08;18.95;;;24.40;97.70;;;;;;5075881;28;20032;-83
2021/08/10 02:03:19;;;;;;;26.45;20.15;;;24.40;97.70;;;;;;5075601;28;20579;-83
2021/08/10 02:05:46;;;;;;;24.45;18.95;;;24.40;97.70;;;;;;5075308;28;20035;-83
2021/08/10 02:08:13;;;;;;;24.77;18.33;;;24.40;97.70;;;;;;5075877;28;20024;-83
2021/08/10 02:10:42;;;;;;;21.20;17.63;;;24.40;97.70;;;;;;5093530;28;20028;-83
2021/08/10 02:13:09;;;;;;;25.13;18.92;;;24.40;97.70;;;;;;5075689;28;20036;-82
2021/08/10 02:15:39;;;;;;;22.50;18.02;;;24.40;97.70;;;;;;5094235;28;20056;-82
2021/08/10 02:18:04;;;;;;;22.65;17.98;;;24.40;97.70;;;;;;5055424;28;20087;-82
2021/08/10 02:20:31;;;;;;;23.67;18.27;;;24.40;97.80;;;;;;5071670;28;20060;-82
2021/08/10 02:22:58;;;;;;;20.65;17.10;;;24.40;97.80;;;;;;5073021;28;20074;-82
2021/08/10 02:25:27;;;;;;;22.23;17.63;;;24.40;97.80;;;;;;5073186;28;20020;-82
2021/08/10 02:27:58;;;;;;;23.67;17.80;;;24.40;97.90;;;;;;5071793;28;20039;-82
2021/08/10 02:30:30;;;;;;;23.10;17.25;;;24.40;97.90;;;;;;5072922;28;20028;-82
2021/08/10 02:32:58;;;;;;;20.08;16.85;;;24.40;97.90;;;;;;5072799;28;20028;-82
2021/08/10 02:35:27;;;;;;;21.55;17.05;;;24.40;97.90;;;;;;5080133;28;20046;-82
2021/08/10 02:37:56;;;;;;;21.67;16.50;;;24.40;97.90;;;;;;5074439;28;20024;-82
2021/08/10 02:40:25;;;;;;;21.45;16.42;;;24.40;97.90;;;;;;5071831;28;20153;-83
2021/08/10 02:42:56;;;;;;;21.63;16.20;;;24.40;98.00;;;;;;5071443;28;20455;-82
2021/08/10 02:45:21;;;;;;;21.25;16.20;;;24.40;98.00;;;;;;5072580;28;20138;-82
2021/08/10 02:47:55;;;;;;;19.00;16.13;;;24.40;98.00;;;;;;5055239;28;20040;-82
2021/08/10 02:50:23;;;;;;;18.48;15.23;;;24.40;98.00;;;;;;5071179;28;20029;-83
2021/08/10 02:52:49;;;;;;;19.35;15.10;;;24.40;98.10;;;;;;5054836;28;20178;-82
2021/08/10 02:55:19;;;;;;;16.95;14.00;;;24.40;98.10;;;;;;5072599;28;20441;-85
2021/08/10 02:58:15;;;;;;;17.80;14.43;;;24.40;98.10;;;;;;5071398;28;20397;-82
2021/08/10 03:00:47;;;;;;;18.77;15.07;;;24.40;98.10;;;;;;5071635;28;20077;-82
2021/08/10 03:03:26;;;;;;;17.65;14.15;;;24.40;98.10;;;;;;5074325;28;20073;-83
2021/08/10 03:05:55;;;;;;;18.88;14.40;;;24.40;98.10;;;;;;5057403;28;20056;-82
2021/08/10 03:08:25;;;;;;;18.00;13.77;;;24.40;98.10;;;;;;5073861;28;20024;-82
2021/08/10 03:10:53;;;;;;;17.40;13.75;;;24.40;98.10;;;;;;5074615;28;20054;-82
2021/08/10 03:13:21;;;;;;;18.17;14.45;;;24.40;98.10;;;;;;5037838;28;20032;-82
2021/08/10 03:15:48;;;;;;;19.83;14.57;;;24.40;98.10;;;;;;5070890;28;20146;-82
2021/08/10 03:18:15;;;;;;;15.38;12.82;;;24.40;98.10;;;;;;5079869;28;20059;-82
2021/08/10 03:20:44;;;;;;;16.73;12.73;;;24.40;98.10;;;;;;5073813;28;20498;-82
2021/08/10 03:23:15;;;;;;;17.55;13.65;;;24.40;98.10;;;;;;5092443;28;20081;-82
2021/08/10 03:25:43;;;;;;;15.40;12.05;;;24.40;98.10;;;;;;5074933;28;20396;-82
2021/08/10 03:28:10;;;;;;;16.00;12.35;;;24.40;98.20;;;;;;5092348;28;20032;-82
2021/08/10 03:30:39;;;;;;;15.48;11.95;;;24.40;98.20;;;;;;5092325;28;20035;-82
2021/08/10 03:33:05;;;;;;;18.02;12.77;;;24.40;98.20;;;;;;5094032;28;20085;-82
2021/08/10 03:35:32;;;;;;;16.17;12.18;;;24.40;98.20;;;;;;5074276;28;20074;-82
2021/08/10 03:37:58;;;;;;;16.83;12.63;;;24.40;98.20;;;;;;5092128;28;20058;-82
2021/08/10 03:40:23;;;;;;;14.23;11.77;;;24.40;98.20;;;;;;5092074;28;20032;-82
2021/08/10 03:42:50;;;;;;;16.05;11.90;;;24.40;98.20;;;;;;5074684;28;20052;-82
2021/08/10 03:45:16;;;;;;;15.93;11.95;;;24.40;98.20;;;;;;5092190;28;20024;-82
2021/08/10 03:47:43;;;;;;;13.23;10.93;;;24.40;98.20;;;;;;5092351;28;20036;-82
2021/08/10 03:50:10;;;;;;;14.93;11.80;;;24.40;98.20;;;;;;5073851;28;20033;-82
2021/08/10 03:52:35;;;;;;;13.32;10.43;;;24.40;98.20;;;;;;5058003;28;20488;-83
2021/08/10 03:55:02;;;;;;;14.85;11.27;;;24.40;98.20;;;;;;5092119;28;20032;-82
2021/08/10 03:57:32;;;;;;;14.32;10.98;;;24.40;98.20;;;;;;5057011;28;20028;-82
2021/08/10 03:59:59;;;;;;;14.77;10.93;;;24.40;98.20;;;;;;5092257;28;20032;-82
2021/08/10 04:02:25;;;;;;;13.63;10.40;;;24.40;98.30;;;;;;5092045;28;20039;-83
2021/08/10 04:04:53;;;;;;;12.77;10.43;;;24.40;98.30;;;;;;5057471;28;20123;-82
2021/08/10 04:07:20;;;;;;;13.13;10.80;;;24.40;98.30;;;;;;5092513;28;20078;-82
2021/08/10 04:09:47;;;;;;;13.13;10.02;;;24.40;98.30;;;;;;5092404;28;20124;-82
2021/08/10 04:12:13;;;;;;;12.45;9.32;;;24.40;98.30;;;;;;5077139;28;20024;-82
2021/08/10 04:14:43;;;;;;;11.38;9.52;;;24.40;98.30;;;;;;5078926;28;20200;-82
2021/08/10 04:17:10;;;;;;;12.38;9.48;;;24.40;98.30;;;;;;5095819;28;20036;-82
2021/08/10 04:19:53;;;;;;;10.90;8.70;;;24.40;98.30;;;;;;5095867;28;20040;-82
2021/08/10 04:22:18;;;;;;;11.15;8.63;;;24.40;98.30;;;;;;5096291;28;20070;-82
2021/08/10 04:24:47;;;;;;;10.55;8.68;;;24.40;98.40;;;;;;5044165;28;20042;-81
2021/08/10 04:27:13;;;;;;;12.65;9.43;;;24.40;98.40;;;;;;5082136;28;20085;-82
2021/08/10 04:29:39;;;;;;;10.82;8.18;;;24.40;98.40;;;;;;5095279;28;20020;-83
2021/08/10 04:32:06;;;;;;;11.90;8.50;;;24.40;98.40;;;;;;5061317;28;20359;-82
2021/08/10 04:34:32;;;;;;;10.43;8.02;;;24.40;98.40;;;;;;5080655;28;20073;-83
2021/08/10 04:36:58;;;;;;;11.05;8.60;;;24.40;98.40;;;;;;5098680;28;20055;-83
2021/08/10 04:39:26;;;;;;;11.82;8.23;;;24.40;98.40;;;;;;5096098;28;20112;-83
2021/08/10 04:42:01;;;;;;;10.35;7.72;;;24.40;98.40;;;;;;5061280;28;20073;-83
2021/08/10 04:44:26;;;;;;;10.00;8.02;;;24.40;98.40;;;;;;5095314;28;20020;-83
2021/08/10 04:46:52;;;;;;;11.50;8.25;;;24.40;98.50;;;;;;5076893;28;20025;-83
2021/08/10 04:49:18;;;;;;;9.52;7.88;;;24.40;98.50;;;;;;5095337;28;20067;-82
2021/08/10 04:51:43;;;;;;;9.77;8.45;;;24.40;98.50;;;;;;5060136;28;20036;-83
2021/08/10 04:54:10;;;;;;;10.40;7.72;;;24.30;98.50;;;;;;5095411;28;20458;-83
2021/08/10 04:56:36;;;;;;;8.68;7.55;;;24.40;98.50;;;;;;5060690;28;20450;-83
2021/08/10 04:59:02;;;;;;;10.50;7.70;;;24.40;98.50;;;;;;5076947;28;20028;-82
2021/08/10 05:01:27;;;;;;;8.65;7.40;;;24.40;98.60;;;;;;5076487;28;20028;-83
2021/08/10 05:03:53;;;;;;;9.57;7.20;;;24.40;98.60;;;;;;5094069;28;20028;-83
2021/08/10 05:06:22;;;;;;;8.98;7.13;;;24.40;98.60;;;;;;5060225;28;20036;-83
2021/08/10 05:08:53;;;;;;;8.20;6.80;;;24.30;98.60;;;;;;5098327;28;20032;-83
2021/08/10 05:11:20;;;;;;;10.07;7.10;;;24.30;98.50;;;;;;5095464;28;20028;-83
2021/08/10 05:13:46;;;;;;;8.57;6.82;;;24.30;98.50;;;;;;5076678;28;20028;-83
2021/08/10 05:16:11;;;;;;;8.93;6.53;;;24.30;98.60;;;;;;5094802;28;20029;-83
2021/08/10 05:18:37;;;;;;;11.43;7.20;;;24.30;98.60;;;;;;5075711;28;20056;-82
2021/08/10 05:21:03;;;;;;;10.32;6.63;;;24.30;98.60;;;;;;5076613;28;20024;-83
2021/08/10 05:23:33;;;;;;;10.93;7.55;;;24.30;98.60;;;;;;5080352;28;20374;-83
2021/08/10 05:25:58;;;;;;;8.90;6.85;;;24.30;98.60;;;;;;5076558;28;20086;-83
2021/08/10 05:28:24;;;;;;;9.48;6.50;;;24.30;98.70;;;;;;5094378;28;20466;-83
2021/08/10 05:30:50;;;;;;;9.95;6.80;;;24.30;98.60;;;;;;5094889;28;20032;-82
2021/08/10 05:33:15;;;;;;;9.52;6.20;;;24.40;98.60;;;;;;5058200;28;20032;-86
2021/08/10 05:35:41;;;;;;;8.40;6.70;;;24.30;98.60;;;;;;5098511;28;20111;-87
2021/08/10 05:38:07;;;;;;;9.60;6.30;;;24.40;98.60;;;;;;5076547;28;20043;-83
2021/08/10 05:40:34;;;;;;;8.40;6.05;;;24.40;98.60;;;;;;5076249;28;20039;-83
2021/08/10 05:42:59;;;;;;;8.05;5.90;;;24.30;98.60;;;;;;5094372;28;20534;-83
2021/08/10 05:45:25;;;;;;;8.40;6.28;;;24.40;98.60;;;;;;5043734;28;20027;-83
2021/08/10 05:47:51;;;;;;;9.85;6.25;;;24.30;98.60;;;;;;5059252;28;20043;-83
2021/08/10 05:50:16;;;;;;;8.07;5.75;;;24.30;98.50;;;;;;5059658;28;20062;-83
2021/08/10 05:52:42;;;;;;;7.47;5.97;;;24.40;98.60;;;;;;5093791;28;20115;-83
2021/08/10 05:55:08;;;;;;;7.30;5.30;;;24.30;98.50;;;;;;5060972;28;20036;-83
2021/08/10 05:57:34;;;;;;;7.28;5.30;;;24.30;98.50;;;;;;5077300;28;20032;-83
2021/08/10 05:59:59;;;;;;;9.48;6.45;;;24.30;98.40;;;;;;5094296;28;20034;-82
2021/08/10 06:02:25;;;;;;;7.35;5.70;;;24.30;98.40;;;;;;5075690;28;20070;-83
2021/08/10 06:04:52;;;;;;;7.05;5.15;;;24.30;98.40;;;;;;5081525;28;20028;-83
2021/08/10 06:07:18;;;;;;;6.57;4.80;;;24.30;98.30;;;;;;5076146;28;20032;-82
2021/08/10 06:09:43;;;;;;;6.88;5.10;;;24.30;98.30;;;;;;5075531;28;20042;-83
2021/08/10 06:12:12;;;;;;;7.63;5.53;;;24.30;98.30;;;;;;5064765;28;20028;-82
2021/08/10 06:14:38;;;;;;;6.85;5.25;;;24.30;98.20;;;;;;5093846;28;20060;-83
2021/08/10 06:17:04;;;;;;;7.03;5.10;;;24.30;98.20;;;;;;5093430;28;20060;-83
2021/08/10 06:19:29;;;;;;;5.88;4.65;;;24.30;98.10;;;;;;5093687;28;20449;-83
2021/08/10 06:21:55;;;;;;;7.55;5.55;;;24.30;98.10;;;;;;5074897;28;20139;-83
2021/08/10 06:24:21;;;;;;;7.78;5.43;;;24.30;98.10;;;;;;5093838;28;20169;-82
2021/08/10 06:26:48;;;;;;;8.60;5.00;;;24.30;98.10;;;;;;5074958;28;20413;-84
2021/08/10 06:29:13;;;;;;;5.60;4.53;;;24.30;98.10;;;;;;5077314;28;20078;-83
2021/08/10 06:31:39;;;;;;;7.15;4.80;;;24.30;98.10;;;;;;5058940;28;20494;-83
2021/08/10 06:34:05;;;;;;;6.38;4.78;;;24.30;98.00;;;;;;5076163;28;20024;-83
2021/08/10 06:36:30;;;;;;;6.15;5.38;;;24.40;98.00;;;;;;5074874;28;20454;-83
2021/08/10 06:38:56;;;;;;;8.30;4.97;;;24.40;98.00;;;;;;5058308;28;20036;-83
2021/08/10 06:41:22;;;;;;;7.72;4.65;;;24.40;98.00;;;;;;5060842;28;20442;-83
2021/08/10 06:43:47;;;;;;;6.15;4.78;;;24.40;98.00;;;;;;5074684;28;20035;-84
2021/08/10 06:46:13;;;;;;;6.03;4.60;;;24.40;98.00;;;;;;5074793;28;20398;-83
2021/08/10 06:48:38;;;;;;;7.07;4.65;;;24.40;97.90;;;;;;5075567;28;20058;-83
2021/08/10 06:51:04;;;;;;;5.80;4.20;;;24.40;97.90;;;;;;5092596;28;20038;-85
2021/08/10 06:53:30;;;;;;;4.97;3.90;;;24.40;97.90;;;;;;5075081;28;20035;-84
2021/08/10 06:55:56;;;;;;;5.43;3.88;;;24.40;97.90;;;;;;5093158;28;20036;-84
2021/08/10 06:58:21;;;;;;;6.32;4.45;;;24.40;97.90;;;;;;5091812;28;20063;-84
2021/08/10 07:00:47;;;;;;;6.68;4.28;;;24.40;97.90;;;;;;5058212;28;20115;-84
2021/08/10 07:03:12;;;;;;;5.53;4.05;;;24.40;97.90;;;;;;5075047;28;20028;-84
2021/08/10 07:05:38;;;;;;;5.28;3.80;;;24.40;97.90;;;;;;5097529;28;20028;-84
2021/08/10 07:08:04;;;;;;;4.82;3.80;;;24.40;98.10;;;;;;5074574;28;20050;-84
2021/08/10 07:10:29;;;;;;;5.13;3.90;;;24.40;97.80;;;;;;5058214;28;20036;-85
2021/08/10 07:12:55;;;;;;;5.75;3.67;;;24.40;97.90;;;;;;5057853;28;20080;-84
2021/08/10 07:15:21;;;;;;;4.68;3.72;;;24.40;97.80;;;;;;5094600;28;20043;-84
2021/08/10 07:17:46;;;;;;;4.82;3.72;;;24.40;97.80;;;;;;5074342;28;21923;-84
2021/08/10 07:20:12;;;;;;;5.07;3.63;;;24.40;97.80;;;;;;5074840;28;20043;-85
2021/08/10 07:22:38;;;;;;;5.68;3.78;;;24.40;97.80;;;;;;5096003;28;20033;-85
2021/08/10 07:25:04;;;;;;;3.83;3.42;;;24.50;97.80;;;;;;5074835;28;20044;-85
2021/08/10 07:27:30;;;;;;;4.25;3.47;;;24.50;97.70;;;;;;5092968;28;20051;-85
2021/08/10 07:29:56;;;;;;;5.43;3.50;;;24.60;97.80;;;;;;5074278;28;20032;-84
2021/08/10 07:32:22;;;;;;;4.38;3.40;;;24.60;97.80;;;;;;5092445;28;20032;-84
2021/08/10 07:34:49;;;;;;;3.75;3.10;;;24.60;97.80;;;;;;5074329;28;20029;-85
2021/08/10 07:37:15;;;;;;;5.80;3.65;;;24.60;97.80;;;;;;5057467;28;20454;-82
2021/08/10 07:39:41;;;;;;;4.10;2.95;;;24.60;97.80;;;;;;5070380;28;20031;-83
2021/08/10 07:42:06;;;;;;;5.85;3.45;;;24.60;97.90;;;;;;5076201;28;20107;-82
2021/08/10 07:44:32;;;;;;;3.75;3.08;;;24.60;97.90;;;;;;5058527;28;20052;-83
2021/08/10 07:46:57;;;;;;;5.18;3.22;;;24.60;97.90;;;;;;5076912;28;20036;-82
2021/08/10 07:49:23;;;;;;;7.28;3.70;;;24.60;97.90;;;;;;5080829;28;20073;-83
2021/08/10 07:51:49;;;;;;;6.18;3.67;;;24.60;97.90;;;;;;5045204;28;20032;-82
2021/08/10 07:54:14;;;;;;;4.80;3.08;;;24.60;98.00;;;;;;5078141;28;20477;-83
2021/08/10 07:56:40;;;;;;;5.93;3.10;;;24.60;98.00;;;;;;5062006;28;20447;-82
2021/08/10 07:59:06;;;;;;;4.03;2.92;;;24.50;98.00;;;;;;5078095;28;20041;-82
2021/08/10 08:01:31;;;;;;;4.30;2.75;;;24.50;98.00;;;;;;5080319;28;20032;-82
2021/08/10 08:03:57;;;;;;;5.90;3.33;;;24.50;98.00;;;;;;5061690;28;20127;-82
2021/08/10 08:06:23;;;;;;;4.05;3.03;;;24.50;98.00;;;;;;5096367;28;20032;-82
2021/08/10 08:08:48;;;;;;;4.80;3.17;;;24.50;98.00;;;;;;5061236;28;20470;-82
2021/08/10 08:11:14;;;;;;;5.68;3.20;;;24.60;98.10;;;;;;5044853;28;20036;-82
2021/08/10 08:13:40;;;;;;;3.40;2.90;;;24.60;98.10;;;;;;5096215;28;20423;-82
2021/08/10 08:16:05;;;;;;;4.20;3.17;;;24.60;98.10;;;;;;5095083;28;20020;-83
2021/08/10 08:18:32;;;;;;;4.05;2.70;;;24.60;98.10;;;;;;5077986;28;20080;-82
2021/08/10 08:20:58;;;;;;;4.32;2.70;;;24.60;98.10;;;;;;5060671;28;20032;-84
2021/08/10 08:23:28;;;;;;;4.20;2.75;;;24.60;98.10;;;;;;5095589;28;20039;-82
2021/08/10 08:25:54;;;;;;;9.30;4.05;;;24.60;98.20;;;;;;5082164;28;20025;-82
2021/08/10 08:28:20;;;;;;;7.05;3.53;;;24.60;98.20;;;;;;5077790;28;20040;-82
2021/08/10 08:30:46;;;;;;;8.98;4.35;;;24.60;98.20;;;;;;5077856;28;20031;-82
2021/08/10 08:33:11;;;;;;;7.97;3.95;;;24.60;98.20;;;;;;5077716;28;20123;-82
2021/08/10 08:35:38;;;;;;;8.82;4.38;;;24.60;98.30;;;;;;5075923;28;20024;-82
2021/08/10 08:38:05;;;;;;;8.00;4.50;;;24.60;98.30;;;;;;5082079;28;20130;-82
2021/08/10 08:40:31;;;;;;;10.75;5.05;;;24.60;98.30;;;;;;5096150;28;20060;-82
2021/08/10 08:42:56;;;;;;;11.25;5.00;;;24.60;98.30;;;;;;5095889;28;20059;-82
2021/08/10 08:45:22;;;;;;;9.25;4.82;;;24.70;98.50;;;;;;5095460;28;20458;-83
2021/08/10 08:47:54;;;;;;;9.10;4.78;;;24.70;98.30;;;;;;5077593;28;20035;-82
2021/08/10 08:50:22;;;;;;;8.05;4.90;;;24.60;98.30;;;;;;5077535;28;20020;-83
2021/08/10 08:52:52;;;;;;;6.72;5.25;;;24.70;98.30;;;;;;5077711;28;20091;-83
2021/08/10 08:55:19;;;;;;;7.18;5.18;;;24.70;98.40;;;;;;5080439;28;20084;-82
2021/08/10 08:57:46;;;;;;;10.30;5.63;;;24.70;98.30;;;;;;5078063;28;20037;-83
2021/08/10 09:00:13;;;;;;;7.40;5.55;;;24.70;98.40;;;;;;5076720;28;20027;-83
2021/08/10 09:02:40;;;;;;;9.77;6.03;;;24.70;98.40;;;;;;5077405;28;20474;-82
2021/08/10 09:05:07;;;;;;;9.23;6.82;;;24.70;98.50;;;;;;5094975;28;20191;-83
2021/08/10 09:07:32;;;;;;;9.13;6.10;;;24.70;98.60;;;;;;5077058;28;20028;-83
2021/08/10 09:10:10;;;;;;;9.27;5.60;;;24.70;98.60;;;;;;5060322;28;20028;-83
2021/08/10 09:12:42;;;;;;;10.32;5.88;;;24.70;98.60;;;;;;5100753;28;20028;-83
2021/08/10 09:15:10;;;;;;;6.97;5.20;;;24.70;98.60;;;;;;5095252;28;20081;-83
2021/08/10 09:17:46;;;;;;;7.00;5.32;;;24.70;98.60;;;;;;5095095;28;20093;-82
2021/08/10 09:20:20;;;;;;;7.55;5.25;;;24.70;98.60;;;;;;5077354;28;20458;-83
2021/08/10 09:22:46;;;;;;;8.45;5.63;;;24.70;98.70;;;;;;5077567;28;20091;-82
2021/08/10 09:25:15;;;;;;;8.90;6.00;;;24.70;98.60;;;;;;5076628;28;20492;-82
2021/08/10 09:27:42;;;;;;;9.75;5.90;;;24.70;98.70;;;;;;5094600;28;20113;-83
2021/08/10 09:30:10;;;;;;;7.03;5.65;;;24.70;98.60;;;;;;5059597;28;20024;-82
2021/08/10 09:32:51;;;;;;;9.27;5.95;;;24.70;98.60;;;;;;5093405;28;20143;-82
2021/08/10 09:35:18;;;;;;;10.48;6.32;;;24.70;98.50;;;;;;5076449;28;20114;-82
2021/08/10 09:38:05;;;;;;;8.68;5.70;;;24.70;98.50;;;;;;5094704;28;20028;-83
2021/08/10 09:40:41;;;;;;;7.55;5.25;;;24.60;98.40;;;;;;5094631;28;20032;-82
2021/08/10 09:43:20;;;;;;;8.15;5.43;;;24.70;98.40;;;;;;5094594;28;20493;-85
2021/08/10 09:45:46;;;;;;;8.23;5.65;;;24.70;98.40;;;;;;5076368;28;20024;-83
2021/08/10 09:48:17;;;;;;;7.07;4.70;;;24.70;98.40;;;;;;5079151;28;20032;-83
2021/08/10 09:50:44;;;;;;;8.48;5.30;;;24.70;98.40;;;;;;5076272;28;20032;-82
2021/08/10 09:53:17;;;;;;;7.57;5.32;;;24.70;98.40;;;;;;5059131;28;20094;-83
2021/08/10 09:55:57;;;;;;;9.23;5.93;;;24.70;98.30;;;;;;5059403;28;20029;-82
2021/08/10 09:58:23;;;;;;;9.27;6.68;;;24.70;98.30;;;;;;5093684;28;20305;-82
2021/08/10 10:00:50;;;;;;;9.55;6.38;;;24.70;98.30;;;;;;5076107;28;20055;-82
2021/08/10 10:03:19;;;;;;;10.10;6.57;;;24.70;98.30;;;;;;5058392;28;20064;-82
2021/08/10 10:05:46;;;;;;;9.07;6.40;;;24.70;98.30;;;;;;5094164;28;20531;-81
2021/08/10 10:08:15;;;;;;;10.00;6.72;;;24.70;98.30;;;;;;5092307;28;20100;-84
2021/08/10 10:10:42;;;;;;;8.68;6.35;;;24.70;98.20;;;;;;5075502;28;20089;-85
2021/08/10 10:13:11;;;;;;;9.43;7.10;;;24.70;98.20;;;;;;5094033;28;20089;-82
2021/08/10 10:15:38;;;;;;;8.80;6.50;;;24.70;98.20;;;;;;5092834;28;20110;-82
2021/08/10 10:18:05;;;;;;;10.02;7.25;;;24.70;98.20;;;;;;5075329;28;20056;-82
2021/08/10 10:20:31;;;;;;;8.57;6.40;;;24.60;98.20;;;;;;5077439;28;20039;-82
2021/08/10 10:22:58;;;;;;;9.13;6.65;;;24.60;98.40;;;;;;5059784;28;20028;-82
2021/08/10 10:25:27;;;;;;;9.93;7.32;;;24.60;98.20;;;;;;5076834;28;20481;-82
2021/08/10 10:27:55;;;;;;;9.30;6.60;;;24.60;98.20;;;;;;5058686;28;20024;-82
2021/08/10 10:30:22;;;;;;;9.25;6.78;;;24.60;98.20;;;;;;5093332;28;20031;-82
2021/08/10 10:32:48;;;;;;;10.40;7.57;;;24.60;98.10;;;;;;5075438;28;20496;-82
2021/08/10 10:35:16;;;;;;;9.02;6.63;;;24.60;98.10;;;;;;5078891;28;20103;-85
2021/08/10 10:37:45;;;;;;;8.02;6.43;;;24.60;98.10;;;;;;5084386;28;20035;-82
2021/08/10 10:40:12;;;;;;;9.85;5.85;;;24.60;98.10;;;;;;5093499;28;20024;-82
2021/08/10 10:42:39;;;;;;;10.25;6.85;;;24.60;98.00;;;;;;5093207;28;20056;-82
2021/08/10 10:45:05;;;;;;;9.00;6.15;;;24.60;98.00;;;;;;5079774;28;20035;-83
2021/08/10 10:47:34;;;;;;;10.30;6.68;;;24.60;98.00;;;;;;5058946;28;20028;-83
2021/08/10 10:50:00;;;;;;;7.80;5.70;;;24.60;98.00;;;;;;5094374;28;20386;-83
2021/08/10 10:52:30;;;;;;;7.28;5.63;;;24.60;97.90;;;;;;5095634;28;20039;-83
2021/08/10 10:54:56;;;;;;;7.20;5.25;;;24.70;97.90;;;;;;5074806;28;20032;-83
2021/08/10 10:57:32;;;;;;;7.90;5.50;;;24.70;97.90;;;;;;5074708;28;20051;-84
2021/08/10 11:00:05;;;;;;;7.35;5.32;;;24.70;97.80;;;;;;5093258;28;20478;-82
2021/08/10 11:02:36;;;;;;;7.93;5.75;;;24.70;97.80;;;;;;5092475;28;20072;-83
2021/08/10 11:05:08;;;;;;;7.07;5.13;;;24.70;97.70;;;;;;5074741;28;20024;-82
2021/08/10 11:07:33;;;;;;;6.82;4.80;;;24.70;97.70;;;;;;5080242;28;20054;-83
2021/08/10 11:09:59;;;;;;;7.47;5.25;;;24.70;97.60;;;;;;5075099;28;20450;-83
2021/08/10 11:12:46;;;;;;;6.90;4.85;;;24.70;97.60;;;;;;5074584;28;20367;-83
2021/08/10 11:15:11;;;;;;;6.35;4.88;;;24.70;97.50;;;;;;5093133;28;20024;-83
2021/08/10 11:17:37;;;;;;;6.25;4.72;;;24.70;97.50;;;;;;5092495;28;20067;-83
2021/08/10 11:20:26;;;;;;;6.05;4.75;;;24.80;97.50;;;;;;5058068;28;20485;-82
2021/08/10 11:23:31;;;;;;;6.63;4.70;;;24.80;97.50;;;;;;5097576;28;20342;-82
2021/08/10 11:26:02;;;;;;;7.05;4.30;;;24.80;97.50;;;;;;5092570;28;20020;-83
2021/08/10 11:28:32;;;;;;;8.00;4.80;;;24.80;97.50;;;;;;5078588;28;20093;-81
2021/08/10 11:31:03;;;;;;;6.13;4.45;;;24.80;97.40;;;;;;5074561;28;20461;-83
2021/08/10 11:33:32;;;;;;;5.28;3.80;;;24.80;97.50;;;;;;5073527;28;20075;-84
2021/08/10 11:36:10;;;;;;;4.55;3.78;;;24.80;97.50;;;;;;5074123;28;20028;-83
2021/08/10 11:38:37;;;;;;;6.32;4.72;;;24.80;97.50;;;;;;5073482;28;20090;-84
2021/08/10 11:41:04;;;;;;;6.28;4.63;;;24.80;97.50;;;;;;5074669;28;20119;-82
2021/08/10 11:43:41;;;;;;;5.80;4.40;;;24.80;97.50;;;;;;5078691;28;20453;-82
2021/08/10 11:46:07;;;;;;;6.50;4.55;;;24.80;97.50;;;;;;5092471;28;20377;-82
2021/08/10 11:48:52;;;;;;;5.57;3.75;;;24.80;97.50;;;;;;5093870;28;20077;-81
2021/08/10 11:51:22;;;;;;;;;;;24.80;97.50;;;;;;5074999;28;20024;-82
2021/08/10 11:53:51;;;;;;;6.72;4.72;;;24.80;97.40;;;;;;5074437;28;20005;-82
2021/08/10 11:56:34;;;;;;;5.80;4.03;;;24.80;97.40;;;;;;5092274;28;20470;-82
2021/08/10 11:59:01;;;;;;;5.80;4.47;;;24.80;97.40;;;;;;5074036;28;20047;-82
2021/08/10 12:01:35;;;;;;;6.53;4.18;;;24.80;97.40;;;;;;5073981;28;20029;-82
2021/08/10 12:04:15;;;;;;;5.28;3.58;;;24.80;97.40;;;;;;5092523;28;20097;-82
2021/08/10 12:06:43;;;;;;;5.97;4.13;;;24.80;97.40;;;;;;5074688;28;20030;-82
2021/08/10 12:09:16;;;;;;;7.43;4.85;;;24.80;97.30;;;;;;5074572;28;20028;-81
2021/08/10 12:11:44;;;;;;;7.63;4.43;;;24.80;97.30;;;;;;5074025;28;20051;-82
2021/08/10 12:14:18;;;;;;;5.13;4.03;;;24.80;97.30;;;;;;5092199;28;20032;-81
2021/08/10 12:17:06;;;;;;;6.75;4.38;;;24.80;97.30;;;;;;5091907;28;20077;-81
2021/08/10 12:19:46;;;;;;;6.97;4.50;;;24.80;97.30;;;;;;5073587;28;20508;-82
2021/08/10 12:22:22;;;;;;;6.20;3.58;;;24.80;97.20;;;;;;5092058;28;20129;-81
2021/08/10 12:24:50;;;;;;;4.75;3.75;;;24.80;97.30;;;;;;5093239;28;20032;-82
2021/08/10 12:27:18;;;;;;;7.35;4.47;;;24.80;97.30;;;;;;5094847;28;20063;-82
2021/08/10 12:29:49;;;;;;;5.63;3.90;;;24.80;97.30;;;;;;5075667;28;20044;-81
2021/08/10 12:32:24;;;;;;;5.43;3.50;;;24.80;97.30;;;;;;5094787;28;20020;-81
2021/08/10 12:34:49;;;;;;;5.25;3.65;;;24.80;97.40;;;;;;5077666;28;20031;-81
2021/08/10 12:37:15;;;;;;;4.75;3.20;;;24.80;97.40;;;;;;5081881;28;20082;-82
2021/08/10 12:39:45;;;;;;;5.13;3.70;;;24.90;97.40;;;;;;5076645;28;20043;-83
2021/08/10 12:42:12;;;;;;;7.65;4.10;;;24.80;97.40;;;;;;5076740;28;20058;-81
2021/08/10 12:44:39;;;;;;;5.50;3.80;;;24.90;97.40;;;;;;5096137;28;20032;-83
2021/08/10 12:47:06;;;;;;;4.68;3.67;;;24.90;97.50;;;;;;5079913;28;20028;-81